Time;durP1;ratioP1;P1;durP2;ratioP2;P2;SDS_P1;SDS_P2;PMS_P1;PMS_P2;Temp;Humidity;BMP_temperature;BMP_pressure;BME280_temperature;BME280_humidity;BME280_pressure;Samples;Min_cycle;Max_cycle;Signal;HPM_P1;HPM_P2
2021/12/21 00:00:43;;;;;;;30.45;13.27;;;;;;;-1.48;94.17;102755.94;5027522;28;20116;-65
2021/12/21 00:03:08;;;;;;;28.83;12.68;;;;;;;-1.49;94.26;102756.91;5025179;28;20372;-65
2021/12/21 00:05:35;;;;;;;27.92;12.88;;;;;;;-1.50;94.74;102755.19;5007234;28;20038;-65
2021/12/21 00:08:03;;;;;;;29.90;13.00;;;;;;;-1.54;94.50;102759.91;5023022;28;20057;-65
2021/12/21 00:10:32;;;;;;;33.45;13.20;;;;;;;-1.56;94.74;102753.78;5026873;28;20014;-65
2021/12/21 00:18:06;;;;;;;24.48;12.75;;;;;;;-1.64;94.69;102759.69;4992382;28;20450;-65
2021/12/21 00:20:50;;;;;;;32.03;12.73;;;;;;;-1.67;94.23;102756.34;5001993;28;20448;-64
2021/12/21 00:23:30;;;;;;;28.30;11.45;;;;;;;-1.75;94.05;102751.47;5007636;28;20051;-64
2021/12/21 00:26:05;;;;;;;23.98;11.65;;;;;;;-1.79;94.43;102747.25;5006703;28;20668;-64
2021/12/21 00:28:35;;;;;;;24.33;12.05;;;;;;;-1.84;94.52;102735.94;5009347;28;20033;-65
2021/12/21 00:31:01;;;;;;;21.17;10.75;;;;;;;-1.87;94.46;102736.16;5027618;28;20108;-65
2021/12/21 00:33:26;;;;;;;25.98;11.93;;;;;;;-1.91;94.28;102734.63;5027401;28;20444;-65
2021/12/21 00:35:51;;;;;;;21.90;10.75;;;;;;;-1.94;94.32;102733.00;5027394;28;20628;-64
2021/12/21 00:38:16;;;;;;;25.73;11.95;;;;;;;-1.97;94.44;102729.66;5016958;28;20116;-65
2021/12/21 00:40:42;;;;;;;23.40;11.73;;;;;;;-1.99;94.76;102732.44;5017622;28;20030;-64
2021/12/21 00:43:07;;;;;;;26.83;12.57;;;;;;;-2.00;94.92;102735.25;5006626;28;20370;-65
2021/12/21 00:45:32;;;;;;;28.27;12.50;;;;;;;-1.98;95.67;102733.28;5005860;28;20048;-65
2021/12/21 00:47:58;;;;;;;24.23;12.93;;;;;;;-2.01;95.46;102733.53;5011487;28;20063;-65
2021/12/21 00:50:24;;;;;;;26.55;12.30;;;;;;;-2.03;95.08;102730.91;4987312;28;20529;-65
2021/12/21 00:52:52;;;;;;;26.15;11.98;;;;;;;-2.06;95.55;102735.66;4988093;28;20485;-65
2021/12/21 00:55:17;;;;;;;;;;;;;;;-2.00;95.02;102730.72;4987079;28;20041;-65
2021/12/21 00:57:43;;;;;;;34.53;12.57;;;;;;;-2.09;94.96;102732.19;5016739;28;19921;-65
2021/12/21 01:00:11;;;;;;;23.52;12.40;;;;;;;-2.14;94.93;102733.47;5007008;28;20022;-65
2021/12/21 01:02:36;;;;;;;23.42;12.48;;;;;;;-2.15;94.96;102729.03;5007172;28;20042;-65
2021/12/21 01:05:04;;;;;;;25.73;11.75;;;;;;;-2.21;95.02;102733.00;5006768;28;20022;-65
2021/12/21 01:07:36;;;;;;;26.38;12.07;;;;;;;-2.24;95.22;102735.03;5002263;28;20029;-65
2021/12/21 01:12:56;;;;;;;27.23;11.63;;;;;;;-2.30;95.08;102732.75;5007196;28;20528;-65
2021/12/21 01:15:39;;;;;;;26.70;12.68;;;;;;;-2.33;95.24;102735.63;5006463;28;20150;-65
2021/12/21 01:18:19;;;;;;;27.05;12.88;;;;;;;-2.37;95.04;102726.91;5001589;28;20027;-65
2021/12/21 01:20:51;;;;;;;28.23;12.65;;;;;;;-2.40;95.04;102737.88;4992154;28;20370;-65
2021/12/21 01:23:40;;;;;;;21.60;11.30;;;;;;;-2.44;95.26;102730.94;4989178;28;20037;-65
2021/12/21 01:27:13;;;;;;;22.25;12.18;;;;;;;-2.47;95.20;102731.16;5023822;28;20052;-65
2021/12/21 01:31:43;;;;;;;29.83;12.15;;;;;;;-2.50;95.67;102718.75;5007168;28;20042;-65
2021/12/21 01:37:02;;;;;;;27.50;13.57;;;;;;;-2.53;95.79;102723.50;5006740;28;20129;-65
2021/12/21 01:42:06;;;;;;;28.65;14.32;;;;;;;-2.55;95.70;102712.81;5010713;28;20118;-65
2021/12/21 01:49:34;;;;;;;32.15;13.43;;;;;;;-2.55;95.58;102717.34;5023662;28;20041;-65
2021/12/21 01:50:04;;;;;;;26.98;12.77;;;;;;;-2.54;96.14;102708.31;5011223;28;20093;-65
2021/12/21 01:52:30;;;;;;;25.52;13.52;;;;;;;-2.56;95.93;102711.09;4987075;28;20037;-64
2021/12/21 01:54:55;;;;;;;27.42;13.55;;;;;;;-2.55;96.20;102712.81;5000186;28;20022;-64
2021/12/21 01:57:22;;;;;;;27.80;11.50;;;;;;;-2.59;96.02;102713.13;5012528;28;20041;-65
2021/12/21 01:59:49;;;;;;;27.70;13.77;;;;;;;-2.63;95.59;102716.03;4986782;28;20084;-64
2021/12/21 02:02:20;;;;;;;23.70;12.40;;;;;;;-2.66;95.73;102721.59;5017807;28;20022;-65
2021/12/21 02:04:46;;;;;;;29.10;12.85;;;;;;;-2.69;95.54;102716.41;4994870;28;20035;-65
2021/12/21 02:07:12;;;;;;;29.55;12.98;;;;;;;-2.71;95.72;102709.41;4986077;28;20137;-65
2021/12/21 02:09:38;;;;;;;29.25;12.68;;;;;;;-2.69;95.79;102699.41;5023463;28;20060;-65
2021/12/21 02:12:06;;;;;;;26.02;12.05;;;;;;;-2.72;95.65;102705.00;5024458;28;20059;-65
2021/12/21 02:14:32;;;;;;;29.92;14.77;;;;;;;-2.73;95.71;102696.06;5006643;28;20465;-65
2021/12/21 02:20:03;;;;;;;30.90;13.18;;;;;;;-2.77;95.64;102697.22;4992730;28;20050;-65
2021/12/21 02:22:32;;;;;;;27.10;13.48;;;;;;;-2.82;95.44;102688.59;5003307;28;20092;-65
2021/12/21 02:25:18;;;;;;;28.42;14.38;;;;;;;-2.85;95.52;102691.47;5011877;28;20029;-65
2021/12/21 02:27:55;;;;;;;27.33;13.68;;;;;;;-2.87;96.31;102683.50;5018641;28;20034;-65
2021/12/21 02:30:20;;;;;;;25.67;14.35;;;;;;;-2.85;95.76;102682.53;5005207;28;20072;-65
2021/12/21 02:32:46;;;;;;;28.50;14.55;;;;;;;-2.84;96.22;102695.00;5001019;28;20469;-64
2021/12/21 02:35:11;;;;;;;29.00;15.57;;;;;;;-2.83;95.97;102700.31;5004826;28;20022;-65
2021/12/21 02:37:36;;;;;;;32.78;14.95;;;;;;;-2.81;96.13;102701.06;5005495;28;20073;-65
2021/12/21 02:40:03;;;;;;;28.15;15.07;;;;;;;-2.80;96.37;102701.91;5004356;28;20030;-65
2021/12/21 02:42:28;;;;;;;30.27;15.73;;;;;;;-2.81;96.33;102702.88;5015864;28;20044;-64
2021/12/21 02:44:54;;;;;;;32.83;15.98;;;;;;;-2.82;96.30;102704.72;4998366;28;20444;-65
2021/12/21 02:47:19;;;;;;;29.27;14.80;;;;;;;-2.82;96.00;102691.28;4985317;28;20023;-65
2021/12/21 02:49:45;;;;;;;32.67;16.20;;;;;;;-2.85;96.39;102688.75;4992610;28;20061;-65
2021/12/21 02:52:10;;;;;;;30.33;15.15;;;;;;;-2.90;95.86;102688.19;5004734;28;20037;-65
2021/12/21 02:54:35;;;;;;;31.67;15.82;;;;;;;-2.95;95.90;102682.25;5004363;28;20021;-65
2021/12/21 02:57:00;;;;;;;30.73;15.07;;;;;;;-2.98;95.99;102685.16;5007265;28;20133;-64
2021/12/21 02:59:26;;;;;;;29.65;15.25;;;;;;;-2.98;96.03;102687.84;5011917;28;20483;-65
2021/12/21 03:01:51;;;;;;;32.08;14.27;;;;;;;-2.95;96.63;102696.56;5024562;28;20037;-65
2021/12/21 03:04:16;;;;;;;31.85;14.80;;;;;;;-2.97;96.37;102687.72;5024336;28;20071;-65
2021/12/21 03:11:56;;;;;;;31.13;15.35;;;;;;;-3.03;96.04;102679.22;5004107;28;20022;-64
2021/12/21 03:14:21;;;;;;;26.77;14.10;;;;;;;-3.06;95.93;102682.94;5004670;28;20149;-64
2021/12/21 03:16:47;;;;;;;33.30;15.68;;;;;;;-3.08;95.97;102674.13;5004723;28;20450;-64
2021/12/21 03:19:12;;;;;;;27.83;13.68;;;;;;;-3.08;96.06;102675.94;5006691;28;20033;-65
2021/12/21 03:21:38;;;;;;;27.15;15.15;;;;;;;-3.11;96.03;102673.44;5022951;28;20439;-65
2021/12/21 03:24:05;;;;;;;30.00;14.43;;;;;;;-3.14;96.13;102680.75;4995319;28;20093;-64
2021/12/21 03:26:30;;;;;;;27.90;14.85;;;;;;;-3.15;96.02;102679.00;5023819;28;20070;-64
2021/12/21 03:28:56;;;;;;;30.90;15.60;;;;;;;-3.15;96.16;102679.00;5024325;28;20022;-65
2021/12/21 03:31:21;;;;;;;27.17;15.30;;;;;;;-3.18;96.02;102671.16;5023050;28;20259;-65
2021/12/21 03:33:48;;;;;;;28.42;14.93;;;;;;;-3.20;96.21;102673.03;5023946;28;20756;-65
2021/12/21 03:36:16;;;;;;;27.77;14.13;;;;;;;-3.21;96.03;102668.63;5006802;28;20054;-64
2021/12/21 03:38:47;;;;;;;29.98;14.63;;;;;;;-3.23;96.28;102665.19;4984418;28;20030;-64
2021/12/21 03:41:15;;;;;;;31.65;15.05;;;;;;;-3.22;96.35;102674.97;5003083;28;20393;-64
2021/12/21 03:43:40;;;;;;;34.90;15.25;;;;;;;-3.22;96.20;102680.34;5005731;28;20037;-64
2021/12/21 03:46:10;;;;;;;31.38;15.25;;;;;;;-3.25;96.15;102677.84;5004206;28;20433;-65
2021/12/21 03:48:37;;;;;;;29.58;15.38;;;;;;;-3.26;96.25;102669.91;5004537;28;20038;-65
2021/12/21 03:51:03;;;;;;;29.63;15.70;;;;;;;-3.29;96.14;102662.91;5002602;28;20026;-64
2021/12/21 03:53:29;;;;;;;31.50;15.32;;;;;;;-3.32;96.04;102667.59;5004102;28;20276;-64
2021/12/21 03:56:39;;;;;;;29.88;15.80;;;;;;;-3.34;95.76;102662.34;5004742;28;20392;-64
2021/12/21 03:58:43;;;;;;;37.67;16.73;;;;;;;-3.33;96.41;102666.75;5015397;28;20107;-64
2021/12/21 04:01:09;;;;;;;31.80;15.48;;;;;;;-3.32;96.62;102668.47;5023314;28;20120;-65
2021/12/21 04:03:34;;;;;;;34.85;16.75;;;;;;;-3.30;96.60;102668.34;5005055;28;20495;-65
2021/12/21 04:05:59;;;;;;;30.55;15.85;;;;;;;-3.34;96.33;102667.69;4984723;28;20042;-65
2021/12/21 04:08:25;;;;;;;35.42;16.02;;;;;;;-3.32;96.19;102670.28;4983196;28;20030;-65
2021/12/21 04:10:50;;;;;;;30.35;15.95;;;;;;;-3.35;96.08;102665.94;4986756;28;20129;-64
2021/12/21 04:13:15;;;;;;;29.15;15.88;;;;;;;-3.34;96.08;102658.78;5003631;28;20476;-64
2021/12/21 04:15:43;;;;;;;37.20;15.50;;;;;;;-3.36;96.38;102658.84;5003696;28;20026;-65
2021/12/21 04:18:12;;;;;;;37.22;16.67;;;;;;;-3.38;96.00;102662.63;5002253;28;20022;-64
2021/12/21 04:20:39;;;;;;;30.55;16.63;;;;;;;-3.41;96.07;102659.13;5017630;28;20029;-65
2021/12/21 04:23:06;;;;;;;31.42;15.32;;;;;;;-3.41;96.08;102664.50;5022349;28;20116;-64
2021/12/21 04:25:32;;;;;;;29.95;15.93;;;;;;;-3.39;96.26;102667.13;5008621;28;20022;-65
2021/12/21 04:27:57;;;;;;;30.20;16.73;;;;;;;-3.40;96.30;102657.31;5004305;28;20033;-64
2021/12/21 04:30:23;;;;;;;37.17;16.58;;;;;;;-3.39;96.67;102661.75;4999865;28;20027;-65
2021/12/21 04:32:48;;;;;;;30.67;16.38;;;;;;;-3.40;96.63;102663.56;4994007;28;20030;-65
2021/12/21 04:35:19;;;;;;;34.13;16.15;;;;;;;-3.41;96.44;102663.66;5003384;28;20036;-65
2021/12/21 04:37:47;;;;;;;32.38;16.33;;;;;;;-3.43;96.30;102671.81;5008969;28;20384;-65
2021/12/21 04:40:16;;;;;;;37.70;17.15;;;;;;;-3.43;96.27;102660.22;5002513;28;20033;-65
2021/12/21 04:42:42;;;;;;;32.75;16.20;;;;;;;-3.45;96.27;102654.94;5020798;28;20114;-65
2021/12/21 04:45:07;;;;;;;27.42;15.43;;;;;;;-3.46;96.23;102655.00;5026641;28;20445;-65
2021/12/21 04:47:33;;;;;;;30.38;17.35;;;;;;;-3.45;96.19;102654.94;5013695;28;20088;-65
2021/12/21 04:49:58;;;;;;;34.78;18.15;;;;;;;-3.46;96.25;102650.50;5009107;28;20048;-65
2021/12/21 04:52:24;;;;;;;30.98;15.85;;;;;;;-3.52;96.34;102650.88;4996971;28;20495;-65
2021/12/21 04:54:49;;;;;;;28.52;15.57;;;;;;;-3.54;96.12;102655.50;5006461;28;20062;-65
2021/12/21 04:57:14;;;;;;;33.33;15.98;;;;;;;-3.55;96.09;102652.91;5011694;28;20030;-65
2021/12/21 04:59:39;;;;;;;37.03;16.80;;;;;;;-3.60;95.83;102653.16;5007899;28;20391;-65
2021/12/21 05:02:05;;;;;;;27.90;14.80;;;;;;;-3.62;95.84;102649.72;5007017;28;20036;-65
2021/12/21 05:04:30;;;;;;;31.42;15.25;;;;;;;-3.63;96.00;102645.31;5007635;28;20129;-65
2021/12/21 05:06:55;;;;;;;31.02;16.33;;;;;;;-3.62;96.01;102648.88;5004998;28;20041;-65
2021/12/21 05:09:27;;;;;;;34.47;16.55;;;;;;;-3.66;95.89;102648.19;5023332;28;20035;-65
2021/12/21 05:12:04;;;;;;;27.58;17.13;;;;;;;-3.66;95.89;102648.19;5005638;28;20026;-65
2021/12/21 05:14:29;;;;;;;29.90;16.85;;;;;;;-3.63;96.21;102655.22;5012350;28;20060;-65
2021/12/21 05:16:55;;;;;;;35.20;18.55;;;;;;;-3.60;96.21;102649.63;5019072;28;20047;-64
2021/12/21 05:19:20;;;;;;;32.00;16.05;;;;;;;-3.63;96.31;102652.53;4987422;28;20027;-64
2021/12/21 05:21:45;;;;;;;35.25;15.75;;;;;;;-3.67;95.80;102657.22;4989883;28;20037;-64
2021/12/21 05:24:10;;;;;;;33.80;16.70;;;;;;;-3.67;95.61;102657.22;5006924;28;20429;-64
2021/12/21 05:26:37;;;;;;;31.10;16.45;;;;;;;-3.66;96.00;102662.47;5005004;28;20022;-64
2021/12/21 05:29:03;;;;;;;29.65;16.63;;;;;;;-3.64;95.99;102665.09;5006397;28;20025;-64
2021/12/21 05:31:28;;;;;;;29.77;17.27;;;;;;;-3.63;96.04;102663.25;5008970;28;20052;-64
2021/12/21 05:33:53;;;;;;;33.28;16.73;;;;;;;-3.64;95.93;102653.50;5026266;28;20021;-64
2021/12/21 05:36:20;;;;;;;33.78;16.45;;;;;;;-3.66;95.76;102653.56;5025891;28;20519;-64
2021/12/21 05:38:50;;;;;;;33.35;17.70;;;;;;;-3.72;95.97;102651.25;5012679;28;20113;-64
2021/12/21 05:41:25;;;;;;;31.25;16.75;;;;;;;-3.77;95.55;102659.59;5004676;28;20044;-64
2021/12/21 05:43:51;;;;;;;30.40;15.90;;;;;;;-3.78;95.98;102657.00;5012619;28;20387;-64
2021/12/21 05:46:16;;;;;;;27.33;15.30;;;;;;;-3.78;95.76;102660.56;5006443;28;20014;-64
2021/12/21 05:48:42;;;;;;;29.00;15.68;;;;;;;-3.79;95.77;102657.97;5026169;28;20112;-64
2021/12/21 05:51:07;;;;;;;31.13;17.08;;;;;;;-3.81;95.83;102671.47;5025530;28;20048;-64
2021/12/21 05:53:32;;;;;;;29.15;16.38;;;;;;;-3.84;95.81;102655.56;5025481;28;20039;-64
2021/12/21 05:55:57;;;;;;;31.27;16.27;;;;;;;-3.88;95.36;102659.38;5008856;28;20030;-64
2021/12/21 05:58:23;;;;;;;24.80;15.38;;;;;;;-3.89;95.73;102657.66;5024943;28;20026;-64
2021/12/21 06:00:48;;;;;;;35.05;15.55;;;;;;;-3.88;96.12;102662.06;5014027;28;20049;-64
2021/12/21 06:03:13;;;;;;;36.80;16.85;;;;;;;-3.86;96.07;102659.28;5014212;28;20030;-64
2021/12/21 06:05:39;;;;;;;31.75;16.95;;;;;;;-3.86;96.21;102661.97;5025297;28;20049;-64
2021/12/21 06:08:04;;;;;;;32.38;17.77;;;;;;;-3.87;96.15;102662.94;5005217;28;20025;-64
2021/12/21 06:10:37;;;;;;;30.02;17.08;;;;;;;-3.86;96.22;102656.59;5025387;28;20056;-64
2021/12/21 06:13:27;;;;;;;31.25;17.42;;;;;;;-3.84;96.40;102654.69;5024736;28;20036;-64
2021/12/21 06:16:24;;;;;;;27.48;16.10;;;;;;;-3.85;96.28;102661.88;5020424;28;20760;-64
2021/12/21 06:26:56;;;;;;;33.38;16.73;;;;;;;-3.96;95.38;102669.69;5001723;28;20045;-64
2021/12/21 06:29:21;;;;;;;37.97;17.67;;;;;;;-3.98;95.31;102664.44;5005530;28;20030;-64
2021/12/21 06:31:48;;;;;;;35.28;16.67;;;;;;;-3.99;95.53;102661.84;5006287;28;20034;-64
2021/12/21 06:34:13;;;;;;;33.38;16.05;;;;;;;-4.01;95.61;102666.44;5005100;28;20025;-64
2021/12/21 06:36:39;;;;;;;28.88;16.00;;;;;;;-4.00;95.85;102661.00;4997136;28;20045;-64
2021/12/21 06:39:07;;;;;;;30.48;16.10;;;;;;;-4.01;96.21;102656.56;5009969;28;20037;-64
2021/12/21 06:41:36;;;;;;;;;;;;;;;-3.95;96.30;102655.34;5002509;28;20030;-64
2021/12/21 06:44:04;;;;;;;31.98;14.52;;;;;;;-4.00;96.03;102654.75;5005549;28;19943;-64
2021/12/21 06:51:48;;;;;;;31.55;16.13;;;;;;;-4.06;96.04;102655.09;4996963;28;20045;-64
2021/12/21 06:54:14;;;;;;;29.63;16.17;;;;;;;-4.05;96.13;102668.44;5004049;28;20029;-64
2021/12/21 06:56:39;;;;;;;33.05;16.42;;;;;;;-4.09;96.25;102656.16;5011173;28;20022;-64
2021/12/21 06:59:04;;;;;;;31.35;16.08;;;;;;;-4.07;96.11;102661.44;5004702;28;20366;-64
2021/12/21 07:01:31;;;;;;;27.17;16.35;;;;;;;-4.10;95.79;102656.25;5003667;28;20393;-64
2021/12/21 07:03:58;;;;;;;28.50;16.55;;;;;;;-4.12;95.57;102666.22;5005275;28;20030;-64
2021/12/21 07:06:24;;;;;;;31.05;15.88;;;;;;;-4.14;95.80;102660.06;5017245;28;20140;-64
2021/12/21 07:09:02;;;;;;;33.25;16.85;;;;;;;-4.14;95.95;102660.94;5023667;28;20112;-64
2021/12/21 07:19:25;;;;;;;27.25;17.17;;;;;;;-4.07;96.03;102670.34;4990197;28;20066;-64
2021/12/21 07:21:50;;;;;;;29.60;18.10;;;;;;;-4.07;96.40;102664.97;5004533;28;20661;-64
2021/12/21 07:24:15;;;;;;;32.05;16.70;;;;;;;-4.08;95.89;102678.50;5003547;28;20026;-65
2021/12/21 07:26:41;;;;;;;34.55;17.73;;;;;;;-4.10;95.81;102678.59;5018145;28;20041;-64
2021/12/21 07:29:07;;;;;;;35.88;17.42;;;;;;;-4.13;95.86;102670.72;5019998;28;20029;-64
2021/12/21 07:31:34;;;;;;;34.85;17.75;;;;;;;-4.10;95.80;102680.41;4984486;28;20026;-64
2021/12/21 07:33:59;;;;;;;31.65;17.73;;;;;;;-4.10;95.77;102675.03;4985383;28;20066;-64
2021/12/21 07:36:32;;;;;;;31.10;17.92;;;;;;;-4.09;95.76;102677.63;4984702;28;20089;-64
2021/12/21 07:39:05;;;;;;;34.92;17.92;;;;;;;-4.05;95.82;102679.19;4984327;28;20034;-64
2021/12/21 07:41:30;;;;;;;41.50;19.73;;;;;;;-4.04;96.25;102675.53;5004331;28;20552;-64
2021/12/21 07:43:55;;;;;;;36.10;17.15;;;;;;;-4.05;95.94;102689.06;5003353;28;20121;-64
2021/12/21 07:46:21;;;;;;;30.40;16.38;;;;;;;-4.05;95.76;102678.31;5003719;28;20037;-64
2021/12/21 07:48:46;;;;;;;29.95;17.02;;;;;;;-4.06;95.23;102682.78;5004178;28;20469;-64
2021/12/21 07:51:12;;;;;;;31.63;16.88;;;;;;;-4.08;95.46;102684.72;5004021;28;20029;-64
2021/12/21 07:53:38;;;;;;;31.90;16.55;;;;;;;-4.07;95.41;102693.63;5000153;28;20037;-64
2021/12/21 07:56:04;;;;;;;33.42;16.63;;;;;;;-4.07;94.95;102694.50;4983917;28;20022;-64
2021/12/21 07:58:30;;;;;;;35.45;18.02;;;;;;;-4.05;95.49;102699.78;4985395;28;20101;-64
2021/12/21 08:00:57;;;;;;;34.90;17.48;;;;;;;-4.06;95.21;102695.34;5000091;28;20110;-64
2021/12/21 08:03:23;;;;;;;35.63;17.00;;;;;;;-4.04;95.22;102696.16;5004118;28;20026;-64
2021/12/21 08:05:51;;;;;;;36.03;17.02;;;;;;;-4.04;95.22;102690.78;5004021;28;20485;-64
2021/12/21 08:08:20;;;;;;;41.80;18.30;;;;;;;-4.02;95.38;102695.09;5001600;28;20053;-65
2021/12/21 08:10:51;;;;;;;32.83;18.65;;;;;;;-3.98;95.60;102682.34;5000189;28;20560;-65
2021/12/21 08:13:17;;;;;;;39.63;19.05;;;;;;;-3.95;95.18;102690.25;5001878;28;20023;-65
2021/12/21 08:15:44;;;;;;;38.97;18.42;;;;;;;-3.93;95.09;102689.19;5010945;28;20540;-64
2021/12/21 08:18:09;;;;;;;44.60;19.63;;;;;;;-3.73;95.65;102690.66;5021992;28;20021;-65
2021/12/21 08:20:35;;;;;;;36.40;19.38;;;;;;;-3.09;95.23;102690.31;5013073;28;20373;-65
2021/12/21 08:23:01;;;;;;;36.42;19.30;;;;;;;-2.55;93.30;102682.38;5003881;28;20034;-65
2021/12/21 08:25:28;;;;;;;32.72;16.92;;;;;;;-2.50;91.73;102686.47;5005979;28;20057;-64
2021/12/21 08:27:54;;;;;;;33.13;18.27;;;;;;;-2.71;91.24;102680.69;4995583;28;20014;-65
2021/12/21 08:30:20;;;;;;;36.90;18.55;;;;;;;-2.77;92.32;102683.78;5003046;28;20026;-65
2021/12/21 08:32:45;;;;;;;28.63;17.02;;;;;;;-2.61;92.10;102686.31;4997185;28;20102;-65
2021/12/21 08:35:13;;;;;;;33.08;16.83;;;;;;;-2.55;91.66;102687.75;4998281;28;20680;-65
2021/12/21 08:37:44;;;;;;;;;;;;;;;-2.43;92.11;102689.66;5002723;28;20120;-65
2021/12/21 08:40:11;;;;;;;29.15;15.98;;;;;;;-2.16;92.01;102687.81;4992017;28;19914;-65
2021/12/21 08:42:38;;;;;;;26.17;15.80;;;;;;;-1.93;91.45;102685.38;4998226;28;20032;-65
2021/12/21 08:45:06;;;;;;;28.83;15.60;;;;;;;-1.70;90.83;102684.69;5005596;28;20034;-65
2021/12/21 08:47:35;;;;;;;31.25;17.05;;;;;;;-0.93;88.58;102688.22;5005405;28;20079;-65
2021/12/21 08:50:01;;;;;;;27.20;15.15;;;;;;;0.14;85.65;102688.34;5006357;28;20025;-65
2021/12/21 08:52:27;;;;;;;30.48;15.95;;;;;;;0.37;83.03;102686.56;4998016;28;20041;-65
2021/12/21 08:54:52;;;;;;;27.48;14.93;;;;;;;0.09;82.68;102693.22;4993623;28;20377;-65
2021/12/21 08:57:18;;;;;;;31.95;15.10;;;;;;;-0.13;83.25;102690.44;5001719;28;20111;-65
2021/12/21 08:59:43;;;;;;;28.98;15.70;;;;;;;-0.16;83.65;102696.91;5005313;28;20141;-65
2021/12/21 09:02:09;;;;;;;35.22;17.30;;;;;;;-0.15;83.79;102697.78;5005714;28;20373;-65
2021/12/21 09:04:35;;;;;;;32.85;19.40;;;;;;;-0.19;83.49;102707.13;5005482;28;20030;-65
2021/12/21 09:07:02;;;;;;;28.05;16.17;;;;;;;-0.23;83.99;102708.31;5003996;28;20100;-65
2021/12/21 09:09:28;;;;;;;28.25;15.73;;;;;;;-0.01;83.67;102711.97;5007127;28;20022;-65
2021/12/21 09:11:53;;;;;;;27.98;16.45;;;;;;;0.33;83.54;102697.75;5005478;28;20389;-65
2021/12/21 09:14:18;;;;;;;27.73;16.23;;;;;;;0.78;82.45;102696.84;5006709;28;20049;-65
2021/12/21 09:16:44;;;;;;;25.08;15.68;;;;;;;0.96;80.78;102696.34;5005355;28;20221;-66
2021/12/21 09:19:09;;;;;;;33.22;16.13;;;;;;;1.10;80.73;102690.69;4999212;28;20034;-65
2021/12/21 09:21:35;;;;;;;32.08;15.40;;;;;;;1.80;79.10;102697.59;5004796;28;20033;-66
2021/12/21 09:24:00;;;;;;;30.33;15.57;;;;;;;2.10;77.85;102683.31;5004141;28;20054;-65
2021/12/21 09:26:27;;;;;;;31.77;17.33;;;;;;;2.20;76.96;102683.41;5003112;28;20072;-66
2021/12/21 09:28:53;;;;;;;33.42;17.42;;;;;;;2.01;76.68;102687.66;5001602;28;20040;-65
2021/12/21 09:31:18;;;;;;;33.85;16.50;;;;;;;1.92;77.14;102685.72;5003666;28;20034;-65
2021/12/21 09:33:43;;;;;;;26.30;16.65;;;;;;;1.66;77.40;102684.34;5004310;28;20029;-65
2021/12/21 09:36:08;;;;;;;28.80;16.42;;;;;;;1.32;79.03;102681.72;5003767;28;20022;-65
2021/12/21 09:38:34;;;;;;;28.55;16.10;;;;;;;1.37;80.06;102682.22;5000646;28;20026;-65
2021/12/21 09:40:59;;;;;;;29.48;16.00;;;;;;;1.43;79.47;102678.13;5003779;28;20033;-65
2021/12/21 09:43:25;;;;;;;33.15;17.67;;;;;;;1.44;79.67;102672.59;5004704;28;20022;-65
2021/12/21 09:45:50;;;;;;;39.67;18.75;;;;;;;1.38;80.54;102678.50;5004267;28;20057;-65
2021/12/21 09:48:15;;;;;;;31.08;17.33;;;;;;;1.33;80.75;102675.31;5005188;28;20028;-65
2021/12/21 09:50:42;;;;;;;34.13;17.75;;;;;;;1.53;80.56;102679.94;4998791;28;20021;-65
2021/12/21 09:53:08;;;;;;;29.65;16.75;;;;;;;2.02;78.78;102675.81;5005014;28;20044;-65
2021/12/21 09:55:33;;;;;;;30.45;16.77;;;;;;;2.21;78.24;102672.41;5004589;28;20029;-65
2021/12/21 09:57:59;;;;;;;31.35;17.55;;;;;;;2.64;77.62;102676.88;4999121;28;20041;-65
2021/12/21 10:00:28;;;;;;;32.83;16.38;;;;;;;3.18;75.76;102669.38;5003953;28;20030;-65
2021/12/21 10:03:01;;;;;;;25.88;14.75;;;;;;;3.94;73.25;102667.81;5004325;28;20117;-65
2021/12/21 10:05:28;;;;;;;28.67;15.43;;;;;;;4.55;70.33;102662.03;5004591;28;20053;-64
2021/12/21 10:07:59;;;;;;;30.27;14.38;;;;;;;5.37;67.04;102647.69;5004442;28;20513;-64
2021/12/21 10:10:24;;;;;;;23.90;13.98;;;;;;;6.09;64.41;102654.06;5003735;28;20026;-64
2021/12/21 10:12:50;;;;;;;23.25;14.07;;;;;;;6.19;62.45;102654.84;5003668;28;20046;-64
2021/12/21 10:15:21;;;;;;;28.98;15.20;;;;;;;6.70;62.48;102650.44;5005210;28;20135;-65
2021/12/21 10:17:48;;;;;;;24.35;14.35;;;;;;;8.38;58.47;102641.38;4996722;28;20030;-65
2021/12/21 10:20:14;;;;;;;28.67;13.82;;;;;;;9.73;53.43;102637.59;5004743;28;20030;-65
2021/12/21 10:22:49;;;;;;;23.95;13.27;;;;;;;11.12;52.12;102631.72;5002548;28;20040;-65
2021/12/21 10:25:14;;;;;;;24.40;14.07;;;;;;;12.19;48.33;102635.50;4992499;28;20015;-65
2021/12/21 10:27:44;;;;;;;24.85;13.23;;;;;;;13.19;46.63;102633.47;4992951;28;20043;-65
2021/12/21 10:30:10;;;;;;;25.73;13.07;;;;;;;14.10;43.04;102633.16;5003321;28;20034;-64
2021/12/21 10:32:35;;;;;;;24.02;13.15;;;;;;;14.38;40.93;102636.56;5004537;28;20037;-65
2021/12/21 10:35:05;;;;;;;26.95;12.63;;;;;;;14.91;39.35;102635.72;5005132;28;20021;-64
2021/12/21 10:37:33;;;;;;;22.58;12.57;;;;;;;15.17;38.14;102630.13;5004668;28;20113;-65
2021/12/21 10:40:08;;;;;;;22.10;11.77;;;;;;;15.30;39.25;102630.03;5004692;28;20122;-64
2021/12/21 10:42:58;;;;;;;23.20;12.82;;;;;;;15.79;41.96;102634.13;4994735;28;20045;-64
2021/12/21 10:45:31;;;;;;;20.70;10.63;;;;;;;15.76;35.92;102634.59;4988427;28;20125;-64
2021/12/21 10:47:57;;;;;;;19.95;10.35;;;;;;;15.99;36.16;102639.53;4985790;28;20692;-64
2021/12/21 10:50:23;;;;;;;20.92;9.93;;;;;;;16.16;34.73;102645.38;5000266;28;20447;-64
2021/12/21 10:52:51;;;;;;;24.63;11.95;;;;;;;16.14;34.80;102635.63;5000723;28;20029;-64
2021/12/21 10:55:23;;;;;;;;;;;;;;;16.71;42.86;102636.41;4997174;28;20445;-65
2021/12/21 10:57:48;;;;;;;22.30;10.30;;;;;;;16.52;33.53;102633.56;4996035;28;19918;-65
2021/12/21 11:00:16;;;;;;;25.15;10.30;;;;;;;16.41;33.50;102633.47;4997878;28;20026;-65
2021/12/21 11:02:43;;;;;;;23.25;10.68;;;;;;;16.01;33.26;102628.22;5004394;28;20033;-64
2021/12/21 11:05:13;;;;;;;19.48;10.13;;;;;;;16.20;34.49;102632.78;5004754;28;20046;-65
2021/12/21 11:10:15;;;;;;;19.95;9.55;;;;;;;16.65;33.08;102624.28;4993067;28;20034;-64
2021/12/21 11:12:53;;;;;;;19.35;9.50;;;;;;;16.78;36.13;102629.75;5001863;28;20062;-65
2021/12/21 11:15:29;;;;;;;;;;;;;;;17.25;41.14;102620.91;5003150;28;20516;-64
2021/12/21 11:17:59;;;;;;;19.13;11.40;;;;;;;16.19;34.99;102617.22;5005329;28;19937;-65
2021/12/21 11:20:25;;;;;;;19.50;11.25;;;;;;;15.96;35.23;102616.97;5004133;28;20034;-65
2021/12/21 11:22:53;;;;;;;20.25;11.20;;;;;;;16.20;34.60;102615.31;5010325;28;20429;-65
2021/12/21 11:25:19;;;;;;;19.02;10.82;;;;;;;16.47;34.34;102608.44;4996867;28;20340;-64
2021/12/21 11:27:44;;;;;;;24.13;10.82;;;;;;;16.78;33.18;102592.84;5003987;28;20512;-65
2021/12/21 11:30:13;;;;;;;22.85;10.00;;;;;;;16.89;32.41;102580.97;5001931;28;20022;-64
2021/12/21 11:32:43;;;;;;;15.80;10.30;;;;;;;16.64;33.66;102578.22;5001895;28;20041;-64
2021/12/21 11:37:36;;;;;;;16.63;10.52;;;;;;;15.74;33.87;102564.69;5000527;28;20088;-65
2021/12/21 11:40:02;;;;;;;18.77;9.70;;;;;;;15.16;34.02;102570.31;5002256;28;20508;-65
2021/12/21 11:42:35;;;;;;;15.98;9.05;;;;;;;14.60;35.99;102572.78;5017651;28;20088;-65
2021/12/21 11:45:09;;;;;;;16.10;9.52;;;;;;;14.00;37.33;102579.19;5004626;28;20018;-65
2021/12/21 11:47:44;;;;;;;19.35;11.02;;;;;;;14.07;36.81;102579.16;5004495;28;20037;-65
2021/12/21 11:50:10;;;;;;;17.60;10.27;;;;;;;13.95;36.20;102569.81;5002485;28;20021;-64
2021/12/21 11:52:45;;;;;;;21.48;12.48;;;;;;;13.62;39.05;102564.22;5004208;28;20112;-65
2021/12/21 11:55:11;;;;;;;26.55;16.40;;;;;;;13.33;36.47;102569.06;5006865;28;20091;-65
2021/12/21 11:57:36;;;;;;;18.25;9.90;;;;;;;12.27;37.04;102565.66;4991448;28;20031;-65
2021/12/21 12:00:07;;;;;;;18.43;9.10;;;;;;;11.28;40.42;102582.00;4990668;28;20120;-65
2021/12/21 12:02:33;;;;;;;17.27;9.05;;;;;;;11.21;40.52;102566.47;4999652;28;20034;-65
2021/12/21 12:04:59;;;;;;;16.52;9.25;;;;;;;11.47;40.75;102566.78;5008384;28;20038;-65
2021/12/21 12:07:24;;;;;;;14.57;8.45;;;;;;;12.12;40.15;102570.41;5006233;28;20116;-65